Time;durP1;ratioP1;P1;durP2;ratioP2;P2;SDS_P1;SDS_P2;PMS_P1;PMS_P2;Temp;Humidity;BMP_temperature;BMP_pressure;BME280_temperature;BME280_humidity;BME280_pressure;Samples;Min_cycle;Max_cycle;Signal;HPM_P1;HPM_P2
2021/12/16 07:00:41;;;;;;;1.40;1.30;;;17.30;67.40;;;;;;10506739;28;20531;-71
2021/12/16 07:06:03;;;;;;;2.50;1.40;;;17.30;68.40;;;;;;10518711;28;20206;-72
2021/12/16 07:11:26;;;;;;;1.40;1.10;;;17.40;68.10;;;;;;10519345;28;20191;-72
2021/12/16 07:16:52;;;;;;;1.57;1.20;;;17.60;67.70;;;;;;10515985;28;20224;-72
2021/12/16 07:22:15;;;;;;;2.47;1.33;;;17.70;67.40;;;;;;10511120;28;20208;-69
2021/12/16 07:27:37;;;;;;;2.47;1.60;;;17.70;67.10;;;;;;10499645;28;20615;-69
2021/12/16 07:33:01;;;;;;;2.37;1.40;;;17.70;66.80;;;;;;10508124;28;20226;-69
2021/12/16 07:38:23;;;;;;;2.07;1.33;;;17.80;66.80;;;;;;10520761;28;20239;-69
2021/12/16 07:43:57;;;;;;;2.03;1.30;;;17.80;66.70;;;;;;10526668;28;20215;-69
2021/12/16 07:49:24;;;;;;;1.73;1.30;;;17.80;67.20;;;;;;10530682;28;20192;-69
2021/12/16 07:54:47;;;;;;;2.43;1.57;;;17.80;66.60;;;;;;10525142;28;20235;-69
2021/12/16 08:00:14;;;;;;;1.43;1.30;;;17.80;66.50;;;;;;10507683;28;20217;-70
2021/12/16 08:05:43;;;;;;;2.80;1.60;;;17.80;66.60;;;;;;10487931;28;20208;-68
2021/12/16 08:11:08;;;;;;;1.90;1.70;;;17.80;66.50;;;;;;10466148;28;20200;-68
2021/12/16 08:16:30;;;;;;;1.30;1.20;;;17.80;66.50;;;;;;10461410;28;20227;-69
2021/12/16 08:21:53;;;;;;;1.80;1.43;;;17.80;66.50;;;;;;10475215;28;20667;-69
2021/12/16 08:27:16;;;;;;;2.53;1.70;;;17.80;66.50;;;;;;10487264;28;20203;-69
2021/12/16 08:32:39;;;;;;;1.70;1.50;;;17.80;66.50;;;;;;10502108;28;20219;-69
2021/12/16 08:38:03;;;;;;;1.70;1.40;;;17.80;66.70;;;;;;10496112;28;20220;-69
2021/12/16 08:43:26;;;;;;;2.97;1.73;;;17.80;66.90;;;;;;10495989;28;20232;-70
2021/12/16 08:48:49;;;;;;;1.73;1.60;;;17.70;66.90;;;;;;10495956;28;20200;-69
2021/12/16 08:54:13;;;;;;;1.87;1.30;;;17.70;67.00;;;;;;10536362;28;20224;-69
2021/12/16 08:59:36;;;;;;;2.53;1.70;;;17.70;67.10;;;;;;10538229;28;20959;-71
2021/12/16 09:04:58;;;;;;;2.27;1.37;;;17.90;66.20;;;;;;10517942;28;20216;-74
2021/12/16 09:10:26;;;;;;;2.43;1.20;;;17.80;66.50;;;;;;10501387;28;20193;-75
2021/12/16 09:15:51;;;;;;;2.00;1.37;;;17.80;66.70;;;;;;10500562;28;20231;-73
2021/12/16 09:21:17;;;;;;;1.37;1.27;;;17.80;66.80;;;;;;10500161;28;20245;-72
2021/12/16 09:26:40;;;;;;;1.70;1.40;;;17.80;66.80;;;;;;10480630;28;20217;-73
2021/12/16 09:32:04;;;;;;;1.57;1.27;;;17.80;66.80;;;;;;10496578;28;20209;-72
2021/12/16 09:37:28;;;;;;;1.27;1.10;;;17.80;66.80;;;;;;10493696;28;20216;-73
2021/12/16 09:42:53;;;;;;;1.40;1.17;;;17.80;66.80;;;;;;10493437;28;20263;-68
2021/12/16 09:48:15;;;;;;;1.60;1.10;;;17.80;67.00;;;;;;10501364;28;20192;-67
2021/12/16 09:53:39;;;;;;;1.80;1.10;;;17.90;66.80;;;;;;10492542;28;20225;-67
2021/12/16 09:59:05;;;;;;;1.40;1.20;;;17.80;66.70;;;;;;10478844;28;20219;-71
2021/12/16 10:04:31;;;;;;;1.83;1.13;;;17.90;66.80;;;;;;10492082;28;20216;-68
2021/12/16 10:09:55;;;;;;;1.50;1.40;;;17.90;66.80;;;;;;10493438;28;20192;-68
2021/12/16 10:21:06;;;;;;;1.57;1.30;;;17.90;66.80;;;;;;10487636;28;20299;-68
2021/12/16 10:26:28;;;;;;;1.67;1.30;;;17.90;66.80;;;;;;10491930;28;20215;-69
2021/12/16 10:31:52;;;;;;;1.93;1.20;;;17.90;66.80;;;;;;10493396;28;20200;-68
2021/12/16 10:37:14;;;;;;;2.40;1.30;;;17.90;66.80;;;;;;10480447;28;20303;-68
2021/12/16 10:42:45;;;;;;;1.80;1.50;;;17.90;66.80;;;;;;10491630;28;20216;-68
2021/12/16 10:48:14;;;;;;;1.10;1.00;;;17.90;66.70;;;;;;10505498;28;20201;-68
2021/12/16 10:53:54;;;;;;;1.10;1.00;;;17.90;66.70;;;;;;10489692;28;20228;-68
2021/12/16 10:59:19;;;;;;;1.37;1.00;;;17.90;66.60;;;;;;10475665;28;20318;-68
2021/12/16 11:04:47;;;;;;;1.80;1.10;;;17.90;66.80;;;;;;10491028;28;20699;-68
2021/12/16 11:10:13;;;;;;;1.27;1.17;;;17.90;66.70;;;;;;10530228;28;20187;-68
2021/12/16 11:15:38;;;;;;;1.00;0.90;;;17.90;66.70;;;;;;10522553;28;20218;-68
2021/12/16 11:21:04;;;;;;;1.30;1.20;;;17.90;66.60;;;;;;10530884;28;20608;-68
2021/12/16 11:26:33;;;;;;;1.20;1.10;;;17.90;66.60;;;;;;10533132;28;20219;-69
2021/12/16 11:31:56;;;;;;;1.73;1.03;;;17.90;66.60;;;;;;10524778;28;20196;-69
2021/12/16 11:37:24;;;;;;;0.90;0.80;;;17.90;66.60;;;;;;10528270;28;20223;-68
2021/12/16 11:43:03;;;;;;;0.80;0.80;;;17.90;66.50;;;;;;10534144;28;20218;-70
2021/12/16 11:48:29;;;;;;;0.97;0.97;;;17.90;66.40;;;;;;10539265;28;20188;-71
2021/12/16 11:53:56;;;;;;;1.30;0.90;;;17.90;66.50;;;;;;10536643;28;20259;-71
2021/12/16 11:59:25;;;;;;;1.97;0.93;;;17.90;66.50;;;;;;10537425;28;20207;-70
2021/12/16 12:04:47;;;;;;;1.30;1.00;;;17.90;66.50;;;;;;10538544;28;20226;-70
2021/12/16 12:10:11;;;;;;;1.40;0.97;;;17.90;66.50;;;;;;10537860;28;20192;-74
2021/12/16 12:15:34;;;;;;;2.60;1.03;;;17.90;66.50;;;;;;10536476;28;20668;-74
2021/12/16 12:21:16;;;;;;;0.60;0.60;;;17.90;66.50;;;;;;10535361;28;20215;-75
2021/12/16 12:26:44;;;;;;;0.90;0.90;;;17.90;66.50;;;;;;10488144;28;20209;-74
2021/12/16 12:32:10;;;;;;;0.93;0.80;;;17.90;66.80;;;;;;10478707;28;20203;-74
2021/12/16 12:37:35;;;;;;;1.03;1.00;;;17.90;66.90;;;;;;10487837;28;20217;-75
2021/12/16 12:42:59;;;;;;;0.80;0.80;;;17.90;67.10;;;;;;10483327;28;20257;-71
2021/12/16 12:48:21;;;;;;;0.60;0.60;;;17.80;67.00;;;;;;10488080;28;20200;-70
2021/12/16 12:53:49;;;;;;;1.13;0.90;;;17.90;67.00;;;;;;10486849;28;20220;-69
2021/12/16 12:59:15;;;;;;;1.20;1.10;;;17.90;67.00;;;;;;10486290;28;20239;-70
2021/12/16 13:04:48;;;;;;;0.83;0.83;;;17.90;67.00;;;;;;10491183;28;20216;-69
2021/12/16 13:10:15;;;;;;;1.10;0.97;;;17.90;66.90;;;;;;10483808;28;20196;-71
2021/12/16 13:15:49;;;;;;;1.10;0.80;;;17.90;67.00;;;;;;10492999;28;20217;-72
2021/12/16 13:27:07;;;;;;;1.77;1.10;;;17.90;67.00;;;;;;10492865;28;20708;-70
2021/12/16 13:32:40;;;;;;;2.17;0.97;;;17.90;67.00;;;;;;10494442;28;20216;-72
2021/12/16 13:38:09;;;;;;;0.87;0.57;;;17.90;67.10;;;;;;10494920;28;20224;-72
2021/12/16 13:43:31;;;;;;;2.43;0.80;;;17.90;67.00;;;;;;10488861;28;20220;-73
2021/12/16 13:58:11;;;;;;;0.90;0.80;;;17.90;67.20;;;;;;10478443;28;20196;-73
2021/12/16 14:06:38;;;;;;;1.00;0.80;;;17.80;67.50;;;;;;10485457;28;20649;-72
2021/12/16 14:17:57;;;;;;;0.70;0.70;;;17.80;67.40;;;;;;10474392;28;20239;-72
2021/12/16 14:23:27;;;;;;;0.60;0.60;;;17.80;67.50;;;;;;10480580;28;20217;-71
2021/12/16 14:40:36;;;;;;;1.33;0.70;;;17.80;67.30;;;;;;10488894;28;20287;-72
2021/12/16 14:46:04;;;;;;;0.87;0.77;;;17.90;67.30;;;;;;10497761;28;20215;-72
2021/12/16 14:51:27;;;;;;;0.82;0.82;;;17.90;67.90;;;;;;10492706;28;20531;-70
2021/12/16 14:56:50;;;;;;;1.53;0.80;;;18.70;64.20;;;;;;10487261;28;20228;-70
2021/12/16 15:02:16;;;;;;;1.50;1.00;;;18.20;65.80;;;;;;10493472;28;20670;-70
2021/12/16 15:07:38;;;;;;;1.43;0.90;;;18.10;66.50;;;;;;10526299;28;20229;-71
2021/12/16 15:13:09;;;;;;;1.67;1.10;;;18.00;66.70;;;;;;10530764;28;20212;-71
2021/12/16 15:46:53;;;;;;;1.20;0.90;;;17.90;67.50;;;;;;10510748;28;20215;-71
2021/12/16 15:52:15;;;;;;;2.37;1.30;;;17.90;67.50;;;;;;10538768;28;20192;-70
2021/12/16 15:57:37;;;;;;;1.30;1.20;;;17.90;66.90;;;;;;10524509;28;20211;-72
2021/12/16 16:03:02;;;;;;;1.20;1.00;;;17.90;66.90;;;;;;10539774;28;20235;-72
2021/12/16 16:08:28;;;;;;;1.30;1.10;;;17.90;66.90;;;;;;10532565;28;20441;-72
2021/12/16 16:13:54;;;;;;;1.07;1.00;;;18.90;63.40;;;;;;10531713;28;20254;-74
2021/12/16 16:19:20;;;;;;;1.73;1.33;;;18.30;65.30;;;;;;10532252;28;20247;-72
2021/12/16 16:24:45;;;;;;;1.67;1.27;;;18.10;66.00;;;;;;10537816;28;20571;-74
2021/12/16 16:30:09;;;;;;;1.20;1.10;;;18.00;66.30;;;;;;10538296;28;20196;-73
2021/12/16 16:35:33;;;;;;;2.20;1.40;;;18.00;66.50;;;;;;10526184;28;20212;-72
2021/12/16 16:40:57;;;;;;;1.83;1.40;;;18.00;66.60;;;;;;10536604;28;20583;-72
2021/12/16 16:46:26;;;;;;;3.80;1.50;;;17.90;66.50;;;;;;10532650;28;20694;-73
2021/12/16 16:51:50;;;;;;;2.27;1.73;;;18.00;66.60;;;;;;10526728;28;20650;-70
2021/12/16 16:57:14;;;;;;;6.40;1.47;;;18.00;66.50;;;;;;10534700;28;20215;-70
2021/12/16 17:02:43;;;;;;;4.93;2.00;;;18.00;66.50;;;;;;10534083;28;20617;-70
2021/12/16 17:08:11;;;;;;;3.57;1.53;;;18.00;66.70;;;;;;10534247;28;20188;-72
2021/12/16 17:13:42;;;;;;;3.07;1.80;;;18.00;67.00;;;;;;10529089;28;20223;-73
2021/12/16 17:19:04;;;;;;;3.60;1.93;;;18.00;67.20;;;;;;10530363;28;20294;-73
2021/12/16 17:24:30;;;;;;;4.93;2.20;;;18.00;67.10;;;;;;10535230;28;20204;-73
2021/12/16 17:29:55;;;;;;;3.57;2.10;;;18.00;67.10;;;;;;10534683;28;20258;-73
2021/12/16 17:35:21;;;;;;;3.83;2.40;;;18.00;67.00;;;;;;10528783;28;20215;-73
2021/12/16 17:40:47;;;;;;;3.43;2.27;;;18.00;66.90;;;;;;10512710;28;20219;-73
2021/12/16 17:46:13;;;;;;;3.07;2.10;;;18.00;66.90;;;;;;10465018;22;20712;-74
2021/12/16 17:51:39;;;;;;;3.60;2.73;;;18.00;66.90;;;;;;10447834;28;20202;-74
2021/12/16 17:57:03;;;;;;;2.43;2.23;;;18.00;66.80;;;;;;10447585;28;20730;-73
2021/12/16 18:02:26;;;;;;;2.47;2.27;;;18.00;66.80;;;;;;10412167;28;20205;-74
2021/12/16 18:07:48;;;;;;;4.03;2.93;;;18.00;66.80;;;;;;10403414;28;20870;-74
2021/12/16 18:13:12;;;;;;;4.13;2.63;;;18.00;66.80;;;;;;10366095;28;20229;-74
2021/12/16 18:18:34;;;;;;;2.33;2.13;;;18.00;66.70;;;;;;10369687;28;20237;-74
2021/12/16 18:24:00;;;;;;;2.73;2.53;;;17.90;66.70;;;;;;10370219;28;20210;-75
2021/12/16 18:29:24;;;;;;;3.43;2.63;;;18.00;66.70;;;;;;10371040;28;20290;-74
2021/12/16 18:34:51;;;;;;;3.53;2.70;;;18.00;66.70;;;;;;10401015;28;20218;-74
2021/12/16 18:40:17;;;;;;;3.77;2.63;;;17.90;66.60;;;;;;10416834;28;20224;-75
2021/12/16 18:45:43;;;;;;;3.70;2.90;;;18.00;66.70;;;;;;10416854;28;20213;-74
2021/12/16 18:51:23;;;;;;;2.90;2.40;;;17.90;66.60;;;;;;10451609;28;20559;-74
2021/12/16 18:56:46;;;;;;;3.20;2.90;;;18.00;66.60;;;;;;10422204;28;20221;-74
2021/12/16 19:02:12;;;;;;;3.63;3.30;;;18.00;66.70;;;;;;10412865;28;20221;-75
2021/12/16 19:07:36;;;;;;;3.47;2.97;;;18.00;66.70;;;;;;10409966;28;20224;-76
2021/12/16 19:13:08;;;;;;;3.27;2.90;;;17.90;66.60;;;;;;10409571;28;20281;-75
2021/12/16 19:18:36;;;;;;;2.93;2.63;;;18.00;66.60;;;;;;10408761;28;20251;-75
2021/12/16 19:23:58;;;;;;;3.73;2.80;;;17.90;66.60;;;;;;10370073;28;20586;-75
2021/12/16 19:29:21;;;;;;;3.07;2.77;;;17.90;66.60;;;;;;10381868;28;20193;-75
2021/12/16 19:34:47;;;;;;;2.97;2.73;;;17.90;66.60;;;;;;10417309;28;20222;-75
2021/12/16 19:40:14;;;;;;;4.00;2.83;;;18.00;66.60;;;;;;10409426;28;20217;-74
2021/12/16 19:45:44;;;;;;;2.90;2.70;;;17.90;66.60;;;;;;10421670;28;20615;-74
2021/12/16 19:51:11;;;;;;;2.73;2.53;;;17.90;66.50;;;;;;10427032;28;20691;-74
2021/12/16 19:56:33;;;;;;;2.80;2.60;;;18.00;66.60;;;;;;10407217;28;20217;-75
2021/12/16 20:01:58;;;;;;;3.10;2.30;;;17.90;66.60;;;;;;10407636;28;20217;-75
2021/12/16 20:07:23;;;;;;;2.77;2.33;;;17.90;66.60;;;;;;10411428;28;20685;-74
2021/12/16 20:12:45;;;;;;;2.63;2.43;;;17.90;66.60;;;;;;10409060;28;20213;-74
2021/12/16 20:18:08;;;;;;;3.13;2.47;;;17.90;66.60;;;;;;10408832;28;20197;-75
2021/12/16 20:23:32;;;;;;;2.73;2.53;;;17.90;66.50;;;;;;10407897;28;20221;-75
2021/12/16 20:28:58;;;;;;;2.40;2.20;;;18.00;66.60;;;;;;10409020;28;20273;-74
2021/12/16 20:34:23;;;;;;;2.40;2.20;;;17.90;66.60;;;;;;10412977;28;20220;-75
2021/12/16 20:39:49;;;;;;;2.60;2.40;;;17.90;66.60;;;;;;10408958;28;20221;-75
2021/12/16 20:45:22;;;;;;;2.77;2.40;;;18.00;67.20;;;;;;10410527;28;20221;-75
2021/12/16 20:50:48;;;;;;;3.03;2.30;;;18.00;66.60;;;;;;10410319;28;20209;-75
2021/12/16 20:56:12;;;;;;;3.40;2.47;;;17.90;66.60;;;;;;10409616;28;20214;-75
2021/12/16 21:01:39;;;;;;;2.33;2.13;;;17.90;66.60;;;;;;10409647;28;20233;-74
2021/12/16 21:07:02;;;;;;;2.67;2.27;;;17.90;66.60;;;;;;10408300;28;20744;-74
2021/12/16 21:12:25;;;;;;;2.37;2.03;;;17.90;66.60;;;;;;10406209;28;20194;-73
2021/12/16 21:17:49;;;;;;;2.40;2.20;;;17.90;66.60;;;;;;10407783;28;20202;-74
2021/12/16 21:23:12;;;;;;;2.77;2.17;;;17.90;66.60;;;;;;10410559;28;20217;-75
2021/12/16 21:28:36;;;;;;;2.63;2.40;;;17.90;66.60;;;;;;10406781;28;20204;-74
2021/12/16 21:34:06;;;;;;;2.80;2.50;;;17.90;66.60;;;;;;10410639;28;20700;-75
2021/12/16 21:39:28;;;;;;;2.17;2.07;;;17.90;66.60;;;;;;10421777;28;20218;-75
2021/12/16 21:44:51;;;;;;;2.47;2.27;;;17.90;66.60;;;;;;10412831;28;20225;-75
2021/12/16 21:50:18;;;;;;;2.23;2.03;;;17.90;66.60;;;;;;10372438;28;20199;-74
2021/12/16 21:55:41;;;;;;;2.40;2.20;;;17.90;66.60;;;;;;10421716;28;20221;-73
2021/12/16 22:01:06;;;;;;;2.50;2.30;;;17.90;66.60;;;;;;10412420;28;20213;-74
2021/12/16 22:06:28;;;;;;;2.20;2.00;;;17.90;66.60;;;;;;10411547;28;20225;-75
2021/12/16 22:11:51;;;;;;;2.50;2.20;;;17.90;66.70;;;;;;10410695;28;20194;-74
2021/12/16 22:17:14;;;;;;;1.87;1.77;;;17.90;66.70;;;;;;10411727;28;20697;-74
2021/12/16 22:22:37;;;;;;;2.17;2.07;;;17.90;66.60;;;;;;10411278;28;20217;-75
2021/12/16 22:27:59;;;;;;;2.50;2.30;;;17.80;66.60;;;;;;10411426;28;20197;-74
2021/12/16 22:33:26;;;;;;;2.87;2.17;;;17.80;66.60;;;;;;10410927;28;20592;-74
2021/12/16 22:38:48;;;;;;;2.47;2.03;;;17.80;66.60;;;;;;10412972;28;20214;-75
2021/12/16 22:44:10;;;;;;;2.20;2.00;;;17.80;66.60;;;;;;10413701;28;20226;-73
2021/12/16 22:49:34;;;;;;;3.30;2.30;;;17.80;66.60;;;;;;10449184;28;20575;-74
2021/12/16 22:54:56;;;;;;;2.43;2.23;;;17.80;66.60;;;;;;10433565;28;20599;-75
2021/12/16 23:00:23;;;;;;;2.53;2.20;;;17.80;66.60;;;;;;10451891;28;20219;-73
2021/12/16 23:05:47;;;;;;;2.30;2.10;;;17.80;66.60;;;;;;10451946;28;20212;-75
2021/12/16 23:11:11;;;;;;;2.23;1.70;;;17.80;66.60;;;;;;10451693;28;20193;-74
2021/12/16 23:16:53;;;;;;;2.10;1.90;;;17.80;66.60;;;;;;10451433;28;20213;-73
2021/12/16 23:27:57;;;;;;;2.23;1.93;;;17.80;66.70;;;;;;10450763;28;20197;-74
2021/12/16 23:33:19;;;;;;;2.07;1.90;;;17.80;66.60;;;;;;10450832;28;20726;-73
2021/12/16 23:38:55;;;;;;;1.87;1.70;;;17.80;66.60;;;;;;10451166;28;20201;-74
2021/12/16 23:55:54;;;;;;;2.20;2.00;;;17.80;66.60;;;;;;10412795;28;20235;-74
